WETTERDATEN

HEUTE
Time Temp. Taup. r.Fe. Windrich Windstärke Windböe Druck 1h Prec. 24h Prec.
00:02 15.4 10.2 71 221 3.1 3.9 1012.3 0.0000 0.0000
00:22 14.9 9.9 72 220 3.1 3.9 1012.1 0.0000 0.0000
00:32 14.7 9.7 72 219 3.1 4.4 1011.9 0.0000 0.0000
00:43 14.4 9.4 72 219 3.1 3.6 1011.8 0.0000 0.0000
00:53 14.2 9.4 73 220 3.3 4.7 1011.8 0.0000 0.0000
01:02 14 9.4 74 220 3.6 4.7 1011.7 0.0000 0.0000
01:13 13.8 9.1 73 220 3.6 4.4 1011.7 0.0000 0.0000
01:23 13.6 9.1 74 219 3.6 4.7 1011.4 0.0000 0.0000
01:33 13.3 8.8 74 219 3.3 4.7 1011.4 0.0000 0.0000
01:43 13.1 8.6 74 220 3.3 4.7 1011.3 0.0000 0.0000
01:53 12.9 8.6 75 219 3.3 3.9 1011.3 0.0000 0.0000
02:03 12.7 8.4 75 221 3.3 4.7 1011.4 0.0000 0.0000
02:13 12.5 8.2 75 219 3.3 3.9 1011.2 0.0000 0.0000
02:23 12.3 8 75 219 3.6 4.7 1011.1 0.0000 0.0000
02:34 12.2 8.1 76 220 3.3 4.4 1011.1 0.0000 0.0000
02:43 12 7.9 76 218 3.1 3.6 1010.9 0.0000 0.0000
02:53 11.8 7.7 76 219 3.1 3.9 1010.8 0.0000 0.0000
03:04 11.7 7.6 76 219 3.3 4.4 1010.6 0.0000 0.0000
03:14 11.6 7.7 77 218 3.1 3.9 1010.4 0.0000 0.0000
03:24 11.5 7.6 77 219 3.1 3.9 1010.4 0.0000 0.0000
03:33 11.4 7.5 77 217 3.1 3.9 1010.2 0.0000 0.0000
03:44 11.3 7.4 77 220 3.1 3.9 1010.2 0.0000 0.0000
03:54 11.2 7.5 78 219 3.1 3.9 1010.1 0.0000 0.0000
04:04 11.1 7.4 78 219 3.3 4.4 1010 0.0000 0.0000
04:14 11.1 7.4 78 219 3.1 3.9 1009.7 0.0000 0.0000
04:24 11.1 7.4 78 219 2.2 3.3 1009.5 0.0000 0.0000
04:34 11 7.3 78 219 2.8 3.6 1009.5 0.0000 0.0000
04:44 10.9 7.4 79 218 2.2 3.3 1009.5 0.0000 0.0000
05:05 10.8 7.3 79 219 2.2 3.3 1009.3 0.0000 0.0000
05:14 10.7 7.2 79 221 2.2 3.3 1009.4 0.0000 0.0000
05:25 10.7 7.2 79 220 2.8 3.3 1009.3 0.0000 0.0000
05:35 10.7 7.4 80 221 2.8 3.3 1009.3 0.0000 0.0000
05:45 10.7 7.4 80 221 2.2 3.1 1009.3 0.0000 0.0000
05:55 10.8 7.5 80 220 1.9 2.8 1009.2 0.0000 0.0000
06:05 10.8 7.5 80 219 1.7 2.2 1009.2 0.0000 0.0000
06:15 10.8 7.5 80 220 1.7 2.2 1009.2 0.0000 0.0000
06:25 11 7.9 81 45 0.6 1.7 1009.1 0.0000 0.0000
06:35 11.2 8.1 81 108 0.6 1.1 1009 0.0000 0.0000
06:46 11.4 8.4 82 90 0.3 1.1 1008.9 0.0000 0.0000
06:58 11.8 8.8 82 228 4.4 8.6 1008.8 0.0000 0.0000
07:08 12.2 9.2 82 217 3.6 8.6 1008.8 0.0000 0.0000
07:18 12.7 9.7 82 213 3.1 5 1008.7 0.0000 0.0000
07:28 13.2 9.8 80 212 2.8 5.8 1008.6 0.0000 0.0000
07:38 13.7 10.3 80 214 2.8 4.7 1008.6 0.0000 0.0000
07:48 14.4 10.8 79 184 3.1 6.9 1008.5 0.0000 0.0000
07:58 15.2 11.2 77 205 4.4 7.8 1008.3 0.0000 0.0000
08:09 15.9 11.5 75 204 4.4 9.4 1008.3 0.0000 0.0000
08:18 16.3 11.5 73 204 3.9 8.6 1008.3 0.0000 0.0000
08:28 17 12.1 73 197 3.9 7.5 1008.2 0.0000 0.0000
08:34 17.5 12.4 72 207 3.6 11.4 1008.2 0.0000 0.0000
08:43 18.3 13 71 122 4.7 11.9 1008.2 0.0000 0.0000
08:53 19.1 13.5 70 58 4.7 11.7 1008.1 0.0000 0.0000
09:03 20.2 13.7 66 49 3.3 8.1 1008.2 0.0000 0.0000
09:13 21.2 13.6 62 60 3.1 6.1 1008.1 0.0000 0.0000
09:22 22 14.1 61 47 3.1 4.7 1008.2 0.0000 0.0000
09:37 23.3 14.3 57 188 6.4 9.2 1008 0.0000 0.0000
09:49 23.9 14.3 55 208 11.7 22.8 1008 0.0000 0.0000
09:55 24.1 14.5 55 220 10 24.7 1008.1 0.0000 0.0000
10:06 24.8 14.9 54 224 17.2 21.1 1008 0.0000 0.0000
10:17 25.2 14.4 51 200 6.4 15.6 1007.6 0.0000 0.0000
10:27 25.2 13.7 49 204 5.8 9.7 1007.5 0.0000 0.0000
10:38 25.7 14.2 49 192 6.1 14.4 1007.3 0.0000 0.0000
10:48 26.3 13.8 46 216 6.1 10.3 1007.3 0.0000 0.0000
10:59 26.9 13.3 43 213 5.8 10.3 1007.2 0.0000 0.0000
11:09 26.5 12.6 42 219 3.9 8.6 1007.2 0.0000 0.0000
11:19 26.4 12.5 42 219 4.4 10.3 1007.1 0.0000 0.0000
11:29 26.5 12.9 43 212 1.4 3.1 1006.9 0.0000 0.0000
11:34 27 13.4 43 221 5.3 11.7 1006.8 0.0000 0.0000
11:44 27.9 14.5 44 203 3.6 9.4 1006.9 0.0000 0.0000
11:55 28.5 13.2 39 219 4.7 9.2 1006.6 0.0000 0.0000
12:05 29 14.4 41 220 3.3 8.6 1006.5 0.0000 0.0000
12:15 29.3 13.5 38 220 4.7 10 1006.4 0.0000 0.0000
12:27 29.4 13.6 38 225 1.9 7.8 1006.4 0.0000 0.0000
12:36 30.1 13.8 37 222 3.3 6.9 1006.2 0.0000 0.0000
12:46 31 15 38 220 3.9 7.5 1005.9 0.0000 0.0000
12:57 32.8 16.2 37 221 4.4 7.8 1005.6 0.0000 0.0000
13:10 33.9 16.3 35 217 4.7 14.2 1005.4 0.0000 0.0000
13:30 34.4 15.8 33 221 3.9 7.5 1005 0.0000 0.0000
13:40 35.4 16.7 33 221 5 8.1 1004.9 0.0000 0.0000
14:01 36.4 16 30 219 3.9 7.8 1004.7 0.0000 0.0000
14:10 36.5 16.6 31 221 6.1 8.1 1004.6 0.0000 0.0000
14:20 36.6 16.2 30 222 6.4 10.3 1004.4 0.0000 0.0000
14:30 36.5 16.1 30 222 5.3 8.3 1004.3 0.0000 0.0000
14:41 36.5 16.1 30 223 4.7 9.2 1004.1 0.0000 0.0000
14:51 36.8 15.9 29 221 5.3 8.3 1004 0.0000 0.0000
15:08 36.3 15.4 29 222 4.7 10.8 1003.9 0.0000 0.0000
15:18 36.1 14.2 27 222 5.3 9.4 1003.7 0.0000 0.0000
15:29 35.3 14 28 173 0.6 1.9 1003.4 0.0000 0.0000
15:39 33.7 12.7 28 193 1.4 6.9 1003 0.0000 0.0000
15:49 33.6 14.1 31 218 1.4 1.9 1003 0.0000 0.0000
15:58 33.4 13.5 30 210 1.1 1.9 1003.1 0.0000 0.0000
16:09 33.1 13.2 30 195 1.4 3.1 1002.8 0.0000 0.0000
16:19 32.4 12.6 30 201 1.7 3.9 1002.6 0.0000 0.0000
16:29 31.9 13.2 32 212 1.4 2.2 1002.7 0.0000 0.0000
16:40 31.8 13.6 33 196 1.1 2.2 1002.4 0.0000 0.0000
16:49 31.6 12.9 32 197 1.4 3.1 1002.6 0.0000 0.0000
16:59 31.2 12.6 32 213 1.9 3.3 1002.8 0.0000 0.0000
17:09 30.5 12.4 33 218 2.8 4.4 1003.4 0.0000 0.0000
17:20 28.9 12.8 37 214 3.3 4.7 1003.5 0.0000 0.0000
17:29 27.6 12 38 210 3.6 5.3 1003.5 0.0000 0.0000
17:39 26.5 11.4 39 206 3.6 5 1003.3 0.0000 0.0000
17:50 25.6 11 40 207 3.6 5.3 1003 0.0000 0.0000
18:00 25 11.2 42 207 3.6 4.7 1003 0.0000 0.0000
18:10 24.5 11.1 43 210 3.3 4.7 1002.7 0.0000 0.0000
18:19 24.2 10.8 43 211 3.3 4.7 1003 0.0000 0.0000
18:30 23.9 10.9 44 211 2.8 4.7 1002.5 0.0000 0.0000

TAGESSTATISTIK

2020-06-03
TEMPERATUR
MITTEL
21.3
MAXIMUM
36.8
14:51
MINIMUM
10.7
05:14
LUFTDRUCK
MITTEL
1007.5
MAXIMUM
1012.3
00:02
MINIMUM
1002.4
16:40
TAUPUNKT
MITTEL
11.4
MAXIMUM
16.7
13:40
MINIMUM
7.2
05:14
FEUCHTIGKEIT
MITTEL
58
MAXIMUM
82
06:46
MINIMUM
27
15:18
WINDSTÄRKE
MITTEL
3.6
MAXIMUM
17.2
10:06
WINDBÖE
MITTEL
6.5
MAXIMUM
24.7
09:55
WINDRICHTUNG
VORHERRSCHENDE
SW
78.3%
N
0.0
NO
4.7
O
1.9
SO
0.9
S
14.2
SW
78.3
W
0.0
NW
0.0
NIEDERSCHLAG
REGEN STUNDE
0.0
REGEN TAG
0.0
TEMPERATUR (°C)
MINIMUM
10.7
MAXIMUM
36.8
MITTEL
21.3
LUFTDRUCK (hpa)
MINIMUM
1002.4
MAXIMUM
1012.3
MITTEL
1007.5
MESSGERÄT